Excellent Pescadores — HORK — position and weather

sailwx.info

Track history (hours):
 
Tides and Currents Weather Stations Pressure Air Temp Water Temp Dewpoint Dewpoint Depression Visibility Wind Speed Wind Dir Waves Ship Positions

Excellent Pescadores

Last reported at 2016-Jul-25 17:23 UTC. Time now 2016-Jul-29 14:07 UTC.
Position N 31°20' E 121°41'.

Length 148 m; draft 9 m.

Type: Cargo ship. MMSI: 356291000.

Date/timePositionNaut miles runAvg speedWind from/ knotsBaromVisibWave heightAir tempDewpointWater temp
2016-Jul-25 17:23N 31°20' E 121°41'7 8.0
2016-Jul-25 16:33N 31°24' E 121°34'9 8.6
2016-Jul-25 15:33N 31°29' E 121°26'1111.4
2016-Jul-25 14:33N 31°36' E 121°16'1110.9
2016-Jul-25 13:33N 31°44' E 121°07'10 0.4
2016-Jul-24 10:30N 31°49' E 120°57'0 0.2
2016-Jul-24 09:33N 31°49' E 120°57'7 6.5
2016-Jul-24 08:33N 31°46' E 121°03'1313.0
2016-Jul-24 07:33N 31°38' E 121°15'1312.6
2016-Jul-24 06:33N 31°29' E 121°26'9 9.4
2016-Jul-24 05:33N 31°23' E 121°35'4611.4
2016-Jul-24 01:33N 31°02' E 122°22'9 9.4
2016-Jul-24 00:33N 31°01' E 122°33'4 0.4
2016-Jul-23 13:33N 31°01' E 122°38'0 0.0
2016-Jul-23 10:14N 31°01' E 122°38'  
2016-Jul-17 18:11N 24°01' E 118°26'  
Track history (hours):
 
Tides and Currents Weather Stations Pressure Air Temp Water Temp Dewpoint Dewpoint Depression Visibility Wind Speed Wind Dir Waves Ship Positions

Excellent Pescadores

Last reported at 2016-Jul-25 17:23 UTC. Time now 2016-Jul-29 14:07 UTC.
Position N 31°20' E 121°41'.

Length 148 m; draft 9 m.

Type: Cargo ship. MMSI: 356291000.

Date/timePositionNaut miles runAvg speedWind from/ knotsBaromVisibWave heightAir tempDewpointWater temp
2016-Jul-25 17:23N 31°20' E 121°41'7 8.0
2016-Jul-25 16:33N 31°24' E 121°34'9 8.6
2016-Jul-25 15:33N 31°29' E 121°26'1111.4
2016-Jul-25 14:33N 31°36' E 121°16'1110.9
2016-Jul-25 13:33N 31°44' E 121°07'10 0.4
2016-Jul-24 10:30N 31°49' E 120°57'0 0.2
2016-Jul-24 09:33N 31°49' E 120°57'7 6.5
2016-Jul-24 08:33N 31°46' E 121°03'1313.0
2016-Jul-24 07:33N 31°38' E 121°15'1312.6
2016-Jul-24 06:33N 31°29' E 121°26'9 9.4
2016-Jul-24 05:33N 31°23' E 121°35'4611.4
2016-Jul-24 01:33N 31°02' E 122°22'9 9.4
2016-Jul-24 00:33N 31°01' E 122°33'4 0.4
2016-Jul-23 13:33N 31°01' E 122°38'0 0.0
2016-Jul-23 10:14N 31°01' E 122°38'  
2016-Jul-17 18:11N 24°01' E 118°26'  

Dump ship's entire track history